Time;durP1;ratioP1;P1;durP2;ratioP2;P2;SDS_P1;SDS_P2;PMS_P1;PMS_P2;Temp;Humidity;BMP_temperature;BMP_pressure;BME280_temperature;BME280_humidity;BME280_pressure;Samples;Min_cycle;Max_cycle;Signal;HPM_P1;HPM_P2
2023/06/02 00:01:24;;;;;;;9.43;3.60;;;;;;;;;;5069640;28;20404;-55
2023/06/02 00:03:53;;;;;;;9.82;3.80;;;;;;;;;;5069508;28;20758;-55
2023/06/02 00:06:19;;;;;;;10.32;4.07;;;;;;;;;;5069546;28;20400;-55
2023/06/02 00:08:45;;;;;;;9.85;3.67;;;;;;;;;;5069381;28;20416;-55
2023/06/02 00:11:13;;;;;;;8.65;3.70;;;;;;;;;;5069346;28;20997;-55
2023/06/02 00:13:40;;;;;;;8.40;4.18;;;;;;;;;;5069614;28;20928;-55
2023/06/02 00:16:06;;;;;;;9.65;4.15;;;;;;;;;;5069451;28;20396;-54
2023/06/02 00:18:33;;;;;;;12.60;4.60;;;;;;;;;;5069508;28;20388;-55
2023/06/02 00:20:59;;;;;;;9.57;4.10;;;;;;;;;;5069206;28;20895;-54
2023/06/02 00:23:28;;;;;;;10.90;4.22;;;;;;;;;;5069348;28;20486;-54
2023/06/02 00:25:54;;;;;;;10.07;4.10;;;;;;;;;;5069280;28;20392;-54
2023/06/02 00:28:22;;;;;;;9.20;3.65;;;;;;;;;;5069325;28;20440;-54
2023/06/02 00:30:48;;;;;;;11.15;4.07;;;;;;;;;;5069390;28;20481;-54
2023/06/02 00:33:14;;;;;;;9.80;3.58;;;;;;;;;;5070008;28;20905;-54
2023/06/02 00:35:40;;;;;;;10.57;3.53;;;;;;;;;;5072920;28;20498;-54
2023/06/02 00:38:06;;;;;;;10.53;3.83;;;;;;;;;;5073164;28;20466;-54
2023/06/02 00:40:32;;;;;;;10.43;3.85;;;;;;;;;;5072841;28;20395;-54
2023/06/02 00:42:59;;;;;;;9.85;3.45;;;;;;;;;;5072644;28;20403;-54
2023/06/02 00:45:27;;;;;;;11.40;4.05;;;;;;;;;;5072526;28;20949;-55
2023/06/02 00:47:53;;;;;;;10.55;4.05;;;;;;;;;;5072566;28;20415;-55
2023/06/02 00:50:19;;;;;;;12.88;3.83;;;;;;;;;;5072650;28;20396;-55
2023/06/02 00:52:45;;;;;;;10.27;3.70;;;;;;;;;;5072696;28;20459;-55
2023/06/02 00:55:11;;;;;;;7.40;3.30;;;;;;;;;;5072396;28;20902;-55
2023/06/02 00:57:40;;;;;;;9.38;3.80;;;;;;;;;;5072626;28;20486;-55
2023/06/02 01:00:07;;;;;;;10.10;3.50;;;;;;;;;;5072418;28;20924;-55
2023/06/02 01:02:35;;;;;;;9.10;3.45;;;;;;;;;;5072516;28;20396;-54
2023/06/02 01:05:03;;;;;;;8.55;3.40;;;;;;;;;;5072155;28;20826;-55
2023/06/02 01:07:29;;;;;;;9.88;3.72;;;;;;;;;;5072403;28;20953;-55
2023/06/02 01:09:56;;;;;;;9.00;3.37;;;;;;;;;;5072279;28;20406;-55
2023/06/02 01:12:22;;;;;;;8.63;3.67;;;;;;;;;;5072308;28;20402;-54
2023/06/02 01:14:48;;;;;;;12.23;3.38;;;;;;;;;;5070998;28;20491;-55
2023/06/02 01:17:15;;;;;;;8.73;3.53;;;;;;;;;;5071988;28;20905;-55
2023/06/02 01:19:43;;;;;;;7.63;3.45;;;;;;;;;;5072035;28;20408;-54
2023/06/02 01:22:11;;;;;;;8.95;3.17;;;;;;;;;;5071949;28;20419;-54
2023/06/02 01:24:40;;;;;;;7.70;3.22;;;;;;;;;;5071978;28;20416;-54
2023/06/02 01:27:07;;;;;;;7.90;3.25;;;;;;;;;;5072046;28;20438;-55
2023/06/02 01:29:35;;;;;;;11.75;4.00;;;;;;;;;;5071990;28;20750;-54
2023/06/02 01:32:04;;;;;;;8.45;3.45;;;;;;;;;;5071669;28;20403;-55
2023/06/02 01:34:33;;;;;;;12.10;3.88;;;;;;;;;;5071810;28;20404;-55
2023/06/02 01:36:59;;;;;;;7.30;3.08;;;;;;;;;;5071628;28;20527;-55
2023/06/02 01:39:27;;;;;;;6.82;3.00;;;;;;;;;;5071566;28;20435;-55
2023/06/02 01:41:55;;;;;;;9.55;3.30;;;;;;;;;;5071622;28;20400;-55
2023/06/02 01:44:22;;;;;;;7.68;3.08;;;;;;;;;;5071647;28;20431;-54
2023/06/02 01:46:48;;;;;;;10.18;3.75;;;;;;;;;;5071395;28;20951;-54
2023/06/02 01:49:18;;;;;;;9.40;3.60;;;;;;;;;;5071446;28;20399;-54
2023/06/02 01:51:44;;;;;;;8.90;3.40;;;;;;;;;;5071401;28;20408;-54
2023/06/02 01:54:10;;;;;;;14.38;4.28;;;;;;;;;;5071278;28;20433;-54
2023/06/02 01:56:36;;;;;;;8.63;3.20;;;;;;;;;;5071550;28;20402;-54
2023/06/02 01:59:04;;;;;;;9.67;3.27;;;;;;;;;;5071315;28;20499;-54
2023/06/02 02:01:30;;;;;;;7.80;3.03;;;;;;;;;;5071298;28;20411;-54
2023/06/02 02:03:56;;;;;;;10.07;3.40;;;;;;;;;;5071001;28;20400;-54
2023/06/02 02:06:24;;;;;;;7.78;3.22;;;;;;;;;;5071287;28;20396;-54
2023/06/02 02:08:50;;;;;;;7.18;3.28;;;;;;;;;;5071177;28;20440;-54
2023/06/02 02:11:16;;;;;;;10.57;3.60;;;;;;;;;;5070954;28;20409;-54
2023/06/02 02:13:42;;;;;;;9.77;3.60;;;;;;;;;;5071035;28;20446;-55
2023/06/02 02:16:10;;;;;;;9.05;3.30;;;;;;;;;;5070862;28;20435;-54
2023/06/02 02:18:36;;;;;;;11.60;3.25;;;;;;;;;;5070999;28;20404;-55
2023/06/02 02:21:02;;;;;;;8.52;3.58;;;;;;;;;;5070856;28;20869;-55
2023/06/02 02:23:28;;;;;;;8.63;3.30;;;;;;;;;;5070698;28;20474;-55
2023/06/02 02:25:54;;;;;;;8.35;3.10;;;;;;;;;;5070787;28;20403;-55
2023/06/02 02:28:21;;;;;;;9.27;3.30;;;;;;;;;;5070722;28;20481;-55
2023/06/02 02:30:47;;;;;;;8.73;3.00;;;;;;;;;;5070716;28;20430;-55
2023/06/02 02:33:14;;;;;;;7.57;3.35;;;;;;;;;;5070483;28;20407;-55
2023/06/02 02:35:41;;;;;;;9.00;3.40;;;;;;;;;;5070667;28;20544;-55
2023/06/02 02:38:07;;;;;;;8.05;3.28;;;;;;;;;;5070558;28;20396;-55
2023/06/02 02:40:33;;;;;;;9.03;3.10;;;;;;;;;;5070684;28;20407;-55
2023/06/02 02:42:59;;;;;;;9.65;3.40;;;;;;;;;;5070357;28;20483;-54
2023/06/02 02:45:25;;;;;;;9.43;3.60;;;;;;;;;;5070488;28;20423;-54
2023/06/02 02:47:51;;;;;;;9.35;3.08;;;;;;;;;;5070420;28;20423;-54
2023/06/02 02:50:18;;;;;;;8.07;3.10;;;;;;;;;;5070331;28;20400;-55
2023/06/02 02:52:44;;;;;;;11.63;3.70;;;;;;;;;;5070311;28;20901;-54
2023/06/02 02:55:10;;;;;;;10.75;3.25;;;;;;;;;;5070128;28;20403;-54
2023/06/02 02:57:37;;;;;;;8.25;2.95;;;;;;;;;;5069953;28;20399;-54
2023/06/02 03:00:07;;;;;;;8.82;3.40;;;;;;;;;;5070332;28;20399;-54
2023/06/02 03:02:33;;;;;;;6.97;3.05;;;;;;;;;;5070316;28;20410;-54
2023/06/02 03:05:02;;;;;;;8.20;3.17;;;;;;;;;;5070002;28;20396;-54
2023/06/02 03:07:29;;;;;;;10.52;3.22;;;;;;;;;;5069984;28;20950;-54
2023/06/02 03:09:55;;;;;;;6.80;2.97;;;;;;;;;;5070011;28;20417;-54
2023/06/02 03:12:21;;;;;;;11.60;3.80;;;;;;;;;;5070163;28;20461;-54
2023/06/02 03:14:47;;;;;;;12.30;3.70;;;;;;;;;;5070161;28;20412;-54
2023/06/02 03:17:13;;;;;;;8.35;3.08;;;;;;;;;;5069534;28;20461;-55
2023/06/02 03:19:40;;;;;;;11.82;3.72;;;;;;;;;;5069470;28;20383;-55
2023/06/02 03:22:06;;;;;;;10.85;3.63;;;;;;;;;;5069484;28;20453;-54
2023/06/02 03:24:34;;;;;;;9.37;3.60;;;;;;;;;;5069920;28;20507;-54
2023/06/02 03:27:00;;;;;;;11.35;3.65;;;;;;;;;;5069696;28;20743;-57
2023/06/02 03:29:26;;;;;;;8.68;3.75;;;;;;;;;;5069786;28;20426;-54
2023/06/02 03:31:52;;;;;;;11.85;3.53;;;;;;;;;;5069960;28;20486;-54
2023/06/02 03:34:18;;;;;;;8.52;3.50;;;;;;;;;;5069615;28;20476;-54
2023/06/02 03:36:44;;;;;;;10.75;3.50;;;;;;;;;;5069647;28;20396;-54
2023/06/02 03:39:12;;;;;;;11.38;3.78;;;;;;;;;;5069631;28;20411;-54
2023/06/02 03:41:40;;;;;;;10.77;4.23;;;;;;;;;;5069898;28;20395;-55
2023/06/02 03:44:06;;;;;;;8.80;3.50;;;;;;;;;;5069754;28;20450;-55
2023/06/02 03:46:32;;;;;;;9.38;3.42;;;;;;;;;;5069670;28;20708;-55
2023/06/02 03:48:58;;;;;;;13.88;3.72;;;;;;;;;;5069609;28;20420;-55
2023/06/02 03:51:25;;;;;;;7.83;3.23;;;;;;;;;;5069589;28;20413;-55
2023/06/02 03:53:51;;;;;;;9.05;3.40;;;;;;;;;;5069841;28;20422;-55
2023/06/02 03:56:19;;;;;;;7.20;2.97;;;;;;;;;;5069530;28;20453;-55
2023/06/02 03:58:46;;;;;;;9.80;3.30;;;;;;;;;;5069548;28;20415;-54
2023/06/02 04:01:12;;;;;;;10.00;3.40;;;;;;;;;;5069420;28;21018;-54
2023/06/02 04:03:41;;;;;;;9.10;3.47;;;;;;;;;;5069460;28;20495;-54
2023/06/02 04:06:07;;;;;;;8.18;3.00;;;;;;;;;;5069552;28;20408;-54
2023/06/02 04:08:34;;;;;;;8.45;3.55;;;;;;;;;;5070823;28;20959;-54
2023/06/02 04:11:00;;;;;;;7.28;3.22;;;;;;;;;;5073211;28;20873;-54
2023/06/02 04:13:26;;;;;;;9.02;3.50;;;;;;;;;;5073132;28;20399;-54
2023/06/02 04:15:53;;;;;;;14.03;4.20;;;;;;;;;;5073371;28;20624;-54
2023/06/02 04:18:19;;;;;;;8.52;3.45;;;;;;;;;;5073149;28;20419;-53
2023/06/02 04:20:46;;;;;;;8.90;3.53;;;;;;;;;;5073094;28;20402;-54
2023/06/02 04:23:12;;;;;;;9.48;3.40;;;;;;;;;;5072852;28;22318;-55
2023/06/02 04:25:38;;;;;;;8.32;3.20;;;;;;;;;;5073148;28;20835;-55
2023/06/02 04:28:05;;;;;;;10.52;3.72;;;;;;;;;;5073056;28;20444;-55
2023/06/02 04:30:31;;;;;;;13.98;4.00;;;;;;;;;;5073046;28;20411;-54
2023/06/02 04:32:59;;;;;;;12.68;4.00;;;;;;;;;;5072822;28;20969;-55
2023/06/02 04:35:25;;;;;;;9.07;3.40;;;;;;;;;;5072907;28;20403;-54
2023/06/02 04:37:51;;;;;;;11.32;3.90;;;;;;;;;;5073028;28;20427;-54
2023/06/02 04:40:17;;;;;;;13.13;4.30;;;;;;;;;;5072784;28;20438;-54
2023/06/02 04:42:43;;;;;;;12.80;3.95;;;;;;;;;;5072787;28;20407;-54
2023/06/02 04:45:15;;;;;;;11.02;3.42;;;;;;;;;;5072616;28;20403;-55
2023/06/02 04:47:42;;;;;;;11.15;3.78;;;;;;;;;;5072436;28;20898;-55
2023/06/02 04:50:10;;;;;;;12.63;4.13;;;;;;;;;;5072573;28;20963;-55
2023/06/02 04:52:38;;;;;;;11.37;3.93;;;;;;;;;;5072934;28;20395;-55
2023/06/02 04:55:04;;;;;;;13.38;4.30;;;;;;;;;;5072552;28;20430;-55
2023/06/02 04:57:30;;;;;;;10.60;3.70;;;;;;;;;;5072623;28;20407;-55
2023/06/02 04:59:56;;;;;;;11.52;4.15;;;;;;;;;;5072466;28;20481;-55
2023/06/02 05:02:22;;;;;;;11.57;4.30;;;;;;;;;;5072453;28;20800;-55
2023/06/02 05:04:48;;;;;;;12.35;4.18;;;;;;;;;;5072519;28;20402;-55
2023/06/02 05:07:16;;;;;;;9.05;3.80;;;;;;;;;;5072109;28;20784;-55
2023/06/02 05:09:42;;;;;;;11.95;4.53;;;;;;;;;;5072358;28;20391;-55
2023/06/02 05:12:09;;;;;;;14.15;4.93;;;;;;;;;;5072190;28;20430;-55
2023/06/02 05:14:36;;;;;;;10.57;4.60;;;;;;;;;;5072334;28;20410;-55
2023/06/02 05:17:02;;;;;;;12.75;5.00;;;;;;;;;;5071744;28;20426;-55
2023/06/02 05:19:28;;;;;;;13.10;4.57;;;;;;;;;;5071527;28;20883;-55
2023/06/02 05:21:54;;;;;;;12.10;4.40;;;;;;;;;;5071632;28;20408;-55
2023/06/02 05:24:22;;;;;;;11.67;4.63;;;;;;;;;;5071982;28;20836;-55
2023/06/02 05:26:48;;;;;;;12.90;4.38;;;;;;;;;;5072095;28;20429;-55
2023/06/02 05:29:14;;;;;;;9.93;4.10;;;;;;;;;;5071695;28;20910;-55
2023/06/02 05:31:40;;;;;;;10.90;4.43;;;;;;;;;;5071740;28;20400;-55
2023/06/02 05:34:06;;;;;;;10.57;4.15;;;;;;;;;;5071728;28;20416;-55
2023/06/02 05:36:32;;;;;;;16.55;5.03;;;;;;;;;;5071748;28;20731;-55
2023/06/02 05:38:59;;;;;;;14.50;5.00;;;;;;;;;;5071565;28;20384;-55
2023/06/02 05:41:28;;;;;;;10.05;4.22;;;;;;;;;;5071454;28;20967;-55
2023/06/02 05:43:54;;;;;;;15.73;5.18;;;;;;;;;;5071791;28;20399;-55
2023/06/02 05:46:20;;;;;;;17.85;5.57;;;;;;;;;;5071583;28;20791;-55
2023/06/02 05:48:46;;;;;;;13.32;4.63;;;;;;;;;;5071688;28;20590;-55
2023/06/02 05:51:12;;;;;;;13.23;4.63;;;;;;;;;;5071422;28;20402;-55
2023/06/02 05:53:38;;;;;;;13.40;4.93;;;;;;;;;;5071403;28;20478;-55
2023/06/02 05:56:04;;;;;;;15.40;5.25;;;;;;;;;;5071542;28;20487;-55
2023/06/02 05:58:32;;;;;;;11.48;4.32;;;;;;;;;;5071377;28;20392;-55
2023/06/02 06:00:58;;;;;;;12.48;4.45;;;;;;;;;;5071164;28;20395;-55
2023/06/02 06:03:24;;;;;;;13.10;4.50;;;;;;;;;;5071163;28;20461;-55
2023/06/02 06:05:50;;;;;;;14.13;4.50;;;;;;;;;;5071390;28;20501;-55
2023/06/02 06:08:16;;;;;;;14.02;4.65;;;;;;;;;;5070973;28;20412;-55
2023/06/02 06:10:42;;;;;;;15.23;5.05;;;;;;;;;;5071072;28;21003;-53
2023/06/02 06:13:08;;;;;;;17.25;4.90;;;;;;;;;;5071054;28;20403;-55
2023/06/02 06:15:35;;;;;;;16.80;5.15;;;;;;;;;;5071175;28;20432;-55
2023/06/02 06:18:01;;;;;;;12.82;4.53;;;;;;;;;;5070783;28;20471;-54
2023/06/02 06:20:27;;;;;;;11.75;4.88;;;;;;;;;;5070786;28;20874;-54
2023/06/02 06:22:53;;;;;;;18.05;6.20;;;;;;;;;;5070529;28;20414;-54
2023/06/02 06:25:20;;;;;;;13.35;4.90;;;;;;;;;;5070885;28;20435;-55
2023/06/02 06:27:46;;;;;;;14.60;5.28;;;;;;;;;;5070814;28;20410;-54
2023/06/02 06:30:12;;;;;;;17.08;5.47;;;;;;;;;;5070406;28;20769;-55
2023/06/02 06:32:39;;;;;;;13.00;4.70;;;;;;;;;;5070223;28;20422;-55
2023/06/02 06:35:06;;;;;;;13.00;4.53;;;;;;;;;;5070583;28;20425;-54
2023/06/02 06:37:32;;;;;;;13.77;5.10;;;;;;;;;;5070635;28;20438;-55
2023/06/02 06:39:58;;;;;;;16.45;5.47;;;;;;;;;;5070515;28;20445;-54
2023/06/02 06:42:24;;;;;;;14.02;5.43;;;;;;;;;;5070591;28;20408;-55
2023/06/02 06:44:50;;;;;;;12.30;4.73;;;;;;;;;;5070638;28;20465;-54
2023/06/02 06:47:16;;;;;;;11.23;4.43;;;;;;;;;;5070183;28;20400;-54
2023/06/02 06:49:44;;;;;;;12.52;4.78;;;;;;;;;;5070164;28;20900;-54
2023/06/02 06:52:10;;;;;;;12.10;4.65;;;;;;;;;;5070174;28;20403;-55
2023/06/02 06:54:35;;;;;;;15.50;4.72;;;;;;;;;;5070553;28;20398;-54
2023/06/02 06:57:01;;;;;;;12.25;4.43;;;;;;;;;;5070245;28;20495;-54
2023/06/02 06:59:27;;;;;;;14.80;5.00;;;;;;;;;;5070149;28;20400;-55
2023/06/02 07:01:53;;;;;;;12.27;4.57;;;;;;;;;;5070243;28;20407;-54
2023/06/02 07:04:20;;;;;;;11.30;4.50;;;;;;;;;;5070224;28;20765;-55
2023/06/02 07:06:47;;;;;;;11.88;4.72;;;;;;;;;;5070147;28;20396;-54
2023/06/02 07:09:15;;;;;;;9.43;4.00;;;;;;;;;;5071203;28;20274;-54
2023/06/02 07:11:41;;;;;;;17.37;4.47;;;;;;;;;;5071351;28;20203;-55
2023/06/02 07:14:07;;;;;;;12.73;3.77;;;;;;;;;;5071392;28;20215;-55
2023/06/02 07:16:33;;;;;;;10.95;4.35;;;;;;;;;;5070008;28;20404;-55
2023/06/02 07:18:59;;;;;;;16.43;5.43;;;;;;;;;;5069860;28;20457;-55
2023/06/02 07:21:25;;;;;;;13.98;5.10;;;;;;;;;;5069843;28;20953;-54
2023/06/02 07:23:53;;;;;;;18.20;5.88;;;;;;;;;;5069892;28;20403;-54
2023/06/02 07:26:20;;;;;;;13.30;5.28;;;;;;;;;;5070030;28;20403;-55
2023/06/02 07:28:46;;;;;;;14.82;5.03;;;;;;;;;;5069809;28;20439;-54
2023/06/02 07:31:12;;;;;;;11.55;4.53;;;;;;;;;;5069693;28;20417;-55
2023/06/02 07:33:38;;;;;;;12.45;5.00;;;;;;;;;;5069898;28;20400;-55
2023/06/02 07:36:04;;;;;;;13.38;5.32;;;;;;;;;;5069932;28;20424;-54
2023/06/02 07:38:31;;;;;;;13.98;4.82;;;;;;;;;;5069801;28;20400;-55
2023/06/02 07:40:58;;;;;;;13.03;5.20;;;;;;;;;;5069808;28;20681;-54
2023/06/02 07:43:24;;;;;;;11.40;4.95;;;;;;;;;;5072408;28;20866;-55
2023/06/02 07:45:50;;;;;;;15.80;4.97;;;;;;;;;;5073949;28;20494;-55
2023/06/02 07:48:16;;;;;;;13.25;4.65;;;;;;;;;;5073680;28;20403;-55
2023/06/02 07:50:42;;;;;;;10.25;4.30;;;;;;;;;;5073755;28;20410;-55
2023/06/02 07:53:08;;;;;;;13.32;4.82;;;;;;;;;;5073914;28;20395;-55
2023/06/02 07:55:34;;;;;;;12.23;4.97;;;;;;;;;;5073962;28;20445;-55
2023/06/02 07:58:02;;;;;;;14.85;4.78;;;;;;;;;;5073623;28;20562;-55
2023/06/02 08:00:28;;;;;;;13.68;5.07;;;;;;;;;;5073449;28;20921;-55
2023/06/02 08:02:54;;;;;;;14.73;4.73;;;;;;;;;;5073609;28;20471;-55
2023/06/02 08:05:20;;;;;;;10.73;4.45;;;;;;;;;;5073531;28;20395;-55
2023/06/02 08:07:46;;;;;;;11.37;4.57;;;;;;;;;;5073395;28;20407;-55
2023/06/02 08:10:12;;;;;;;10.77;4.43;;;;;;;;;;5073254;28;20391;-55
2023/06/02 08:12:38;;;;;;;11.00;4.57;;;;;;;;;;5073330;28;20758;-55
2023/06/02 08:15:06;;;;;;;9.50;3.95;;;;;;;;;;5073371;28;20411;-55
2023/06/02 08:17:32;;;;;;;14.25;4.38;;;;;;;;;;5073302;28;20443;-55
2023/06/02 08:19:59;;;;;;;11.45;4.40;;;;;;;;;;5073190;28;20420;-55
2023/06/02 08:22:26;;;;;;;11.48;4.35;;;;;;;;;;5072875;28;20624;-55
2023/06/02 08:24:52;;;;;;;11.87;4.30;;;;;;;;;;5073068;28;20499;-55
2023/06/02 08:27:20;;;;;;;12.57;4.25;;;;;;;;;;5072903;28;20475;-54
2023/06/02 08:29:46;;;;;;;10.45;4.10;;;;;;;;;;5072820;28;20808;-54
2023/06/02 08:32:13;;;;;;;9.63;3.53;;;;;;;;;;5072351;28;20407;-55
2023/06/02 08:34:41;;;;;;;11.02;4.47;;;;;;;;;;5072910;28;20422;-55
2023/06/02 08:37:09;;;;;;;11.02;3.80;;;;;;;;;;5072774;28;20789;-55
2023/06/02 08:39:35;;;;;;;11.80;5.00;;;;;;;;;;5072876;28;20435;-55
2023/06/02 08:42:01;;;;;;;11.90;4.80;;;;;;;;;;5072803;28;20443;-55
2023/06/02 08:44:28;;;;;;;12.27;4.03;;;;;;;;;;5072585;28;20481;-55
2023/06/02 08:46:55;;;;;;;10.10;4.15;;;;;;;;;;5072615;28;20445;-55
2023/06/02 08:49:23;;;;;;;12.13;4.05;;;;;;;;;;5072611;28;20428;-55
2023/06/02 08:51:52;;;;;;;8.95;4.15;;;;;;;;;;5072770;28;20396;-56
2023/06/02 08:54:18;;;;;;;10.02;4.10;;;;;;;;;;5071995;28;20400;-55
2023/06/02 08:56:44;;;;;;;9.70;3.75;;;;;;;;;;5072459;28;20747;-55
2023/06/02 08:59:10;;;;;;;9.25;3.85;;;;;;;;;;5072394;28;20750;-55
2023/06/02 09:01:36;;;;;;;9.98;3.90;;;;;;;;;;5072467;28;20403;-55
2023/06/02 09:04:03;;;;;;;7.53;3.50;;;;;;;;;;5072168;28;20414;-55
2023/06/02 09:06:31;;;;;;;14.20;4.30;;;;;;;;;;5072264;28;20406;-55
2023/06/02 09:08:57;;;;;;;7.43;3.40;;;;;;;;;;5072243;28;20574;-55
2023/06/02 09:11:24;;;;;;;8.43;3.55;;;;;;;;;;5072167;28;20886;-54
2023/06/02 09:13:50;;;;;;;8.97;3.70;;;;;;;;;;5072287;28;20873;-55
2023/06/02 09:16:16;;;;;;;10.73;3.67;;;;;;;;;;5071993;28;20408;-55
2023/06/02 09:18:54;;;;;;;9.75;3.55;;;;;;;;;;5071929;28;20975;-55
2023/06/02 09:21:23;;;;;;;7.90;3.47;;;;;;;;;;5072104;28;20908;-56
2023/06/02 09:23:50;;;;;;;7.57;3.35;;;;;;;;;;5072034;28;20422;-55
2023/06/02 09:26:21;;;;;;;10.87;3.43;;;;;;;;;;5073068;28;20207;-54
2023/06/02 09:28:47;;;;;;;8.90;3.35;;;;;;;;;;5071957;28;20527;-55
2023/06/02 09:31:13;;;;;;;8.23;3.20;;;;;;;;;;5071672;28;20889;-55
2023/06/02 09:33:40;;;;;;;8.48;3.25;;;;;;;;;;5071748;28;20774;-55
2023/06/02 09:36:21;;;;;;;6.78;2.92;;;;;;;;;;5071867;28;20398;-55
2023/06/02 09:38:47;;;;;;;9.95;3.63;;;;;;;;;;5071815;28;20399;-54
2023/06/02 09:41:18;;;;;;;8.13;2.80;;;;;;;;;;5072729;28;20232;-55
2023/06/02 09:43:44;;;;;;;7.47;3.28;;;;;;;;;;5071681;28;20404;-55
2023/06/02 09:46:10;;;;;;;10.50;3.70;;;;;;;;;;5071350;28;20426;-55
2023/06/02 09:48:39;;;;;;;7.93;2.83;;;;;;;;;;5072895;28;20261;-55
2023/06/02 09:51:21;;;;;;;7.70;2.90;;;;;;;;;;5072790;28;20212;-55
2023/06/02 09:53:47;;;;;;;10.25;3.88;;;;;;;;;;5071436;28;20412;-55
2023/06/02 09:56:14;;;;;;;9.27;3.00;;;;;;;;;;5072396;28;20196;-55
2023/06/02 09:58:41;;;;;;;8.77;3.60;;;;;;;;;;5071154;28;20404;-55
2023/06/02 10:01:07;;;;;;;8.60;3.23;;;;;;;;;;5072371;28;20569;-55
2023/06/02 10:03:34;;;;;;;9.83;3.40;;;;;;;;;;5072292;28;20203;-55
2023/06/02 10:06:05;;;;;;;7.93;2.80;;;;;;;;;;5071080;28;20263;-55
2023/06/02 10:08:35;;;;;;;9.03;3.27;;;;;;;;;;5072203;28;20225;-55
2023/06/02 10:11:06;;;;;;;8.47;3.03;;;;;;;;;;5072369;28;20197;-55
2023/06/02 10:13:56;;;;;;;7.53;2.70;;;;;;;;;;5072430;28;20195;-55
2023/06/02 10:16:33;;;;;;;5.13;2.40;;;;;;;;;;5072106;28;20650;-55
2023/06/02 10:19:17;;;;;;;4.83;2.60;;;;;;;;;;5072266;28;20275;-56
2023/06/02 10:21:48;;;;;;;9.90;2.67;;;;;;;;;;5072113;28;20681;-55
2023/06/02 10:24:20;;;;;;;7.67;3.20;;;;;;;;;;5071930;28;20300;-54
2023/06/02 10:26:54;;;;;;;7.00;2.47;;;;;;;;;;5071842;28;20291;-55
2023/06/02 10:29:24;;;;;;;8.80;3.10;;;;;;;;;;5071910;28;20685;-55
2023/06/02 10:31:51;;;;;;;8.27;3.23;;;;;;;;;;5071960;28;20569;-55
2023/06/02 10:34:36;;;;;;;8.90;2.90;;;;;;;;;;5071911;28;20619;-55
2023/06/02 10:37:15;;;;;;;7.27;3.00;;;;;;;;;;5071813;28;20650;-55
2023/06/02 10:39:52;;;;;;;11.77;3.33;;;;;;;;;;5071691;28;20348;-55
2023/06/02 10:42:18;;;;;;;9.00;2.70;;;;;;;;;;5071573;28;20638;-55
2023/06/02 10:44:47;;;;;;;6.90;2.67;;;;;;;;;;5071736;28;20197;-55
2023/06/02 10:47:31;;;;;;;7.25;2.92;;;;;;;;;;5070219;28;20419;-55
2023/06/02 10:50:00;;;;;;;8.38;3.20;;;;;;;;;;5070415;28;20396;-55
2023/06/02 10:52:50;;;;;;;8.20;3.10;;;;;;;;;;5070137;28;20789;-55
2023/06/02 10:55:27;;;;;;;9.30;2.50;;;;;;;;;;5055821;28;20744;-56
2023/06/02 10:57:53;;;;;;;7.55;2.90;;;;;;;;;;5070292;28;20387;-55
2023/06/02 11:00:49;;;;;;;7.63;2.90;;;;;;;;;;5070214;28;20395;-55
2023/06/02 11:03:34;;;;;;;7.05;2.78;;;;;;;;;;5070125;28;20384;-54
2023/06/02 11:06:21;;;;;;;8.77;2.70;;;;;;;;;;5070002;28;20391;-54
2023/06/02 11:08:48;;;;;;;7.27;2.53;;;;;;;;;;5071423;28;20224;-55
2023/06/02 11:11:29;;;;;;;11.53;2.77;;;;;;;;;;5071253;28;20274;-55
2023/06/02 11:13:56;;;;;;;6.30;2.40;;;;;;;;;;5071220;28;20211;-54
2023/06/02 11:16:22;;;;;;;4.77;2.10;;;;;;;;;;5071154;28;20195;-56
2023/06/02 11:18:48;;;;;;;7.57;2.40;;;;;;;;;;5070994;28;20198;-54
2023/06/02 11:21:18;;;;;;;6.33;2.70;;;;;;;;;;5071052;28;20709;-56
2023/06/02 11:23:45;;;;;;;9.87;3.27;;;;;;;;;;5071097;28;20251;-55
2023/06/02 11:26:12;;;;;;;7.60;2.63;;;;;;;;;;5070945;28;20591;-54
2023/06/02 11:28:38;;;;;;;6.87;2.37;;;;;;;;;;5071218;28;20227;-55
2023/06/02 11:31:08;;;;;;;8.13;3.03;;;;;;;;;;5070762;28;20284;-55
2023/06/02 11:33:34;;;;;;;6.17;2.47;;;;;;;;;;5071030;28;20608;-55
2023/06/02 11:36:00;;;;;;;5.70;2.33;;;;;;;;;;5071004;28;20216;-54
2023/06/02 11:38:32;;;;;;;5.00;2.23;;;;;;;;;;5070750;28;20566;-54
2023/06/02 11:41:08;;;;;;;6.18;2.70;;;;;;;;;;5069536;28;20400;-54
2023/06/02 11:43:34;;;;;;;5.67;2.50;;;;;;;;;;5071040;28;20279;-55
2023/06/02 11:46:04;;;;;;;6.27;2.40;;;;;;;;;;5070739;28;20220;-55
2023/06/02 11:48:30;;;;;;;4.87;2.60;;;;;;;;;;5070616;28;20656;-55
2023/06/02 11:50:57;;;;;;;6.17;2.67;;;;;;;;;;5070635;28;20233;-54
2023/06/02 11:53:23;;;;;;;5.50;2.20;;;;;;;;;;5070290;28;20421;-55
2023/06/02 11:55:51;;;;;;;6.27;2.60;;;;;;;;;;5070963;28;20257;-55
2023/06/02 11:58:19;;;;;;;4.77;2.30;;;;;;;;;;5070726;28;20199;-54
2023/06/02 12:00:45;;;;;;;6.03;2.30;;;;;;;;;;5070769;28;20291;-54
2023/06/02 12:03:12;;;;;;;4.33;2.20;;;;;;;;;;5070620;28;20252;-54
2023/06/02 12:05:43;;;;;;;5.63;2.40;;;;;;;;;;5070553;28;20273;-55
2023/06/02 12:08:10;;;;;;;5.07;2.20;;;;;;;;;;5070564;28;20216;-55
2023/06/02 12:10:36;;;;;;;5.20;2.27;;;;;;;;;;5070811;28;20198;-55
2023/06/02 12:13:02;;;;;;;5.03;2.60;;;;;;;;;;5070714;28;20199;-55
2023/06/02 12:15:33;;;;;;;4.23;2.30;;;;;;;;;;5070360;28;20196;-55
2023/06/02 12:17:59;;;;;;;5.87;2.53;;;;;;;;;;5070495;28;20344;-56
2023/06/02 12:20:33;;;;;;;5.57;2.30;;;;;;;;;;5070461;28;20192;-55
2023/06/02 12:22:59;;;;;;;3.67;2.20;;;;;;;;;;5070479;28;20225;-54
2023/06/02 12:25:25;;;;;;;6.30;2.60;;;;;;;;;;5070536;28;20227;-54
2023/06/02 12:27:51;;;;;;;3.57;2.30;;;;;;;;;;5070574;28;20650;-55
2023/06/02 12:30:17;;;;;;;5.40;2.63;;;;;;;;;;5072676;28;20276;-55
2023/06/02 12:32:45;;;;;;;4.30;2.33;;;;;;;;;;5074238;28;20286;-55
2023/06/02 12:35:11;;;;;;;5.53;2.60;;;;;;;;;;5072743;28;20399;-55
2023/06/02 12:37:37;;;;;;;7.00;2.20;;;;;;;;;;5074062;28;20320;-55
2023/06/02 12:40:03;;;;;;;4.53;2.60;;;;;;;;;;5074109;28;20195;-54
2023/06/02 12:42:29;;;;;;;3.10;2.20;;;;;;;;;;5074102;28;20287;-54
2023/06/02 12:44:55;;;;;;;3.63;2.23;;;;;;;;;;5073806;28;20661;-54
2023/06/02 12:47:21;;;;;;;5.37;2.30;;;;;;;;;;5074001;28;20245;-54
2023/06/02 12:49:52;;;;;;;5.73;2.50;;;;;;;;;;5073595;28;20581;-54
2023/06/02 12:52:18;;;;;;;5.23;2.57;;;;;;;;;;5073658;28;20221;-55
2023/06/02 12:54:44;;;;;;;6.03;2.20;;;;;;;;;;5073632;28;20199;-54
2023/06/02 12:57:10;;;;;;;3.43;1.97;;;;;;;;;;5073971;28;20199;-55
2023/06/02 12:59:36;;;;;;;3.40;1.90;;;;;;;;;;5073891;28;20199;-55
2023/06/02 13:02:02;;;;;;;5.57;2.60;;;;;;;;;;5073860;28;20199;-55
2023/06/02 13:04:28;;;;;;;3.07;1.90;;;;;;;;;;5073574;28;20219;-55
2023/06/02 13:06:55;;;;;;;5.53;2.17;;;;;;;;;;5073652;28;20614;-55
2023/06/02 13:09:21;;;;;;;6.70;1.90;;;;;;;;;;5073465;28;20224;-55
2023/06/02 13:11:48;;;;;;;2.30;1.90;;;;;;;;;;5073577;28;20249;-55
2023/06/02 13:14:14;;;;;;;3.50;2.33;;;;;;;;;;5073319;28;20231;-55
2023/06/02 13:16:40;;;;;;;2.60;1.87;;;;;;;;;;5073389;28;20279;-55
2023/06/02 13:19:06;;;;;;;3.10;1.80;;;;;;;;;;5073439;28;20195;-55
2023/06/02 13:21:33;;;;;;;4.20;2.23;;;;;;;;;;5073304;28;20198;-55
2023/06/02 13:24:00;;;;;;;2.97;1.93;;;;;;;;;;5073187;28;20251;-55
2023/06/02 13:26:26;;;;;;;4.87;2.00;;;;;;;;;;5073078;28;20199;-55
2023/06/02 13:28:52;;;;;;;3.63;2.10;;;;;;;;;;5073219;28;20223;-55
2023/06/02 13:31:18;;;;;;;5.43;2.37;;;;;;;;;;5072979;28;20701;-56
2023/06/02 13:33:44;;;;;;;3.40;2.03;;;;;;;;;;5072911;28;20249;-55
2023/06/02 13:36:10;;;;;;;3.70;1.90;;;;;;;;;;5072846;28;20215;-55
2023/06/02 13:38:36;;;;;;;3.60;2.17;;;;;;;;;;5073004;28;20681;-55
2023/06/02 13:41:04;;;;;;;3.03;2.13;;;;;;;;;;5072707;28;20253;-54
2023/06/02 13:43:30;;;;;;;3.87;1.73;;;;;;;;;;5073503;28;20678;-55
2023/06/02 13:45:56;;;;;;;3.57;2.00;;;;;;;;;;5072753;28;20658;-55
2023/06/02 13:48:22;;;;;;;3.83;1.93;;;;;;;;;;5072822;28;20215;-54
2023/06/02 13:50:48;;;;;;;3.73;1.90;;;;;;;;;;5072856;28;20239;-54
2023/06/02 13:53:14;;;;;;;4.43;2.23;;;;;;;;;;5072585;28;20583;-55
2023/06/02 13:55:40;;;;;;;5.50;2.10;;;;;;;;;;5072565;28;20279;-56
2023/06/02 13:58:07;;;;;;;7.20;2.30;;;;;;;;;;5072810;28;20189;-55
2023/06/02 14:00:35;;;;;;;3.43;2.10;;;;;;;;;;5072521;28;20211;-55
2023/06/02 14:03:01;;;;;;;4.80;1.87;;;;;;;;;;5072508;28;20571;-55
2023/06/02 14:05:27;;;;;;;2.10;1.60;;;;;;;;;;5072226;28;20224;-56
2023/06/02 14:07:53;;;;;;;3.77;2.27;;;;;;;;;;5072413;28;20207;-55
2023/06/02 14:10:21;;;;;;;1.90;1.50;;;;;;;;;;5072422;28;20204;-55
2023/06/02 14:12:47;;;;;;;7.83;2.33;;;;;;;;;;5072509;28;20204;-54
2023/06/02 14:15:14;;;;;;;5.10;1.83;;;;;;;;;;5072186;28;20196;-56
2023/06/02 14:17:40;;;;;;;7.17;2.00;;;;;;;;;;5071978;28;20197;-54
2023/06/02 14:20:07;;;;;;;5.20;2.10;;;;;;;;;;5072425;28;20197;-55
2023/06/02 14:22:33;;;;;;;2.50;1.70;;;;;;;;;;5072137;28;20196;-54
2023/06/02 14:24:59;;;;;;;3.00;1.80;;;;;;;;;;5070598;28;20238;-54
2023/06/02 14:27:25;;;;;;;3.27;1.80;;;;;;;;;;5071960;28;20197;-54
2023/06/02 14:29:51;;;;;;;2.67;1.80;;;;;;;;;;5072093;28;20639;-55
2023/06/02 14:32:18;;;;;;;4.30;1.80;;;;;;;;;;5071543;28;20196;-55
2023/06/02 14:34:44;;;;;;;4.23;2.07;;;;;;;;;;5071683;28;20663;-54
2023/06/02 14:37:10;;;;;;;4.50;2.23;;;;;;;;;;5071774;28;20196;-54
2023/06/02 14:39:37;;;;;;;7.37;2.10;;;;;;;;;;5071721;28;20619;-54